Time;durP1;ratioP1;P1;durP2;ratioP2;P2;SDS_P1;SDS_P2;PMS_P1;PMS_P2;Temp;Humidity;BMP_temperature;BMP_pressure;BME280_temperature;BME280_humidity;BME280_pressure;Samples;Min_cycle;Max_cycle;Signal;HPM_P1;HPM_P2
2021/01/26 00:04:07;;;;;;;9.00;5.37;;;;;;;0.18;95.79;99209.88;10451084;28;20180;-53
2021/01/26 00:09:08;;;;;;;12.27;7.23;;;;;;;0.16;95.73;99217.78;10450167;28;20221;-53
2021/01/26 00:14:08;;;;;;;11.10;5.43;;;;;;;0.21;96.06;99226.34;10451818;28;20179;-54
2021/01/26 00:19:09;;;;;;;13.53;6.97;;;;;;;-0.02;95.51;99187.06;10451535;28;20227;-54
2021/01/26 00:24:09;;;;;;;11.17;6.13;;;;;;;0.25;95.98;99243.66;10452437;28;20661;-54
2021/01/26 00:29:10;;;;;;;9.00;4.63;;;;;;;0.24;96.94;99236.69;10451350;28;20175;-53
2021/01/26 00:34:11;;;;;;;18.53;8.07;;;;;;;0.24;96.12;99238.50;10451146;28;20213;-55
2021/01/26 00:39:11;;;;;;;14.17;8.53;;;;;;;0.23;97.24;99235.00;10450974;28;20294;-54
2021/01/26 00:44:12;;;;;;;14.00;7.87;;;;;;;0.25;96.82;99237.53;10450946;28;20172;-55
2021/01/26 00:49:12;;;;;;;7.60;5.97;;;;;;;0.22;97.24;99243.78;10451327;28;20210;-55
2021/01/26 00:54:13;;;;;;;12.43;8.47;;;;;;;0.22;98.21;99237.69;10450479;28;20180;-54
2021/01/26 00:59:13;;;;;;;15.33;8.63;;;;;;;0.22;98.05;99233.28;10450770;28;20268;-55
2021/01/26 01:04:14;;;;;;;15.30;7.97;;;;;;;0.20;98.65;99229.88;10450504;28;20178;-55
2021/01/26 01:09:14;;;;;;;16.47;9.13;;;;;;;0.21;97.68;99223.72;10432300;28;20549;-55
2021/01/26 01:14:14;;;;;;;14.37;7.17;;;;;;;0.19;98.15;99230.78;10450565;28;20625;-54
2021/01/26 01:19:15;;;;;;;13.77;8.00;;;;;;;0.18;98.84;99231.69;10448773;28;20769;-54
2021/01/26 01:24:16;;;;;;;15.27;7.90;;;;;;;0.18;98.00;99226.47;10449460;28;20191;-55
2021/01/26 01:29:17;;;;;;;16.13;8.33;;;;;;;0.18;98.82;99231.69;10449040;28;20184;-54
2021/01/26 01:34:17;;;;;;;9.50;5.87;;;;;;;0.19;98.85;99225.53;10448248;28;20192;-53
2021/01/26 01:39:18;;;;;;;14.43;8.80;;;;;;;0.17;98.20;99224.75;10449843;28;20298;-54
2021/01/26 01:44:18;;;;;;;14.50;8.60;;;;;;;0.18;98.07;99228.22;10449049;28;20192;-53
2021/01/26 01:49:25;;;;;;;15.90;8.80;;;;;;;0.17;98.05;99229.13;10447826;28;20190;-53
2021/01/26 01:54:32;;;;;;;18.73;9.17;;;;;;;0.16;99.45;99217.78;10449513;28;20176;-53
2021/01/26 01:59:46;;;;;;;14.23;6.17;;;;;;;0.18;98.16;99231.69;10448752;28;20866;-55
2021/01/26 02:04:46;;;;;;;18.20;8.97;;;;;;;0.18;97.86;99223.84;10449325;28;20267;-53
2021/01/26 02:09:47;;;;;;;10.30;5.87;;;;;;;0.20;98.55;99239.50;10448669;28;20791;-52
2021/01/26 02:14:51;;;;;;;11.10;7.27;;;;;;;0.21;98.25;99230.72;10448994;28;20180;-53
2021/01/26 02:19:58;;;;;;;20.33;10.30;;;;;;;0.23;99.02;99244.66;10448371;28;20830;-54
2021/01/26 02:25:19;;;;;;;13.17;6.60;;;;;;;0.23;98.57;99239.41;10448357;28;20246;-53
2021/01/26 02:30:28;;;;;;;17.73;8.90;;;;;;;0.22;98.94;99243.78;10450093;28;20543;-54
2021/01/26 02:35:38;;;;;;;19.23;9.23;;;;;;;0.24;99.54;99238.50;10438162;28;20251;-53
2021/01/26 02:40:45;;;;;;;23.90;11.63;;;;;;;0.24;98.66;99236.69;10456522;28;20194;-52
2021/01/26 02:45:59;;;;;;;14.77;8.57;;;;;;;0.25;99.82;99251.50;10455405;28;20572;-53
2021/01/26 02:51:29;;;;;;;20.30;10.67;;;;;;;0.25;99.13;99253.28;10438232;28;20255;-53
2021/01/26 02:56:47;;;;;;;16.70;9.50;;;;;;;0.21;99.86;99246.47;10419263;28;20727;-53
2021/01/26 03:01:53;;;;;;;14.07;7.83;;;;;;;0.19;99.95;99250.91;10454912;28;20643;-53
2021/01/26 03:06:54;;;;;;;17.13;9.57;;;;;;;0.18;99.79;99257.94;10436892;28;20640;-53
2021/01/26 03:12:09;;;;;;;13.23;7.87;;;;;;;0.20;99.20;99263.97;10437136;28;20214;-53
2021/01/26 03:17:25;;;;;;;16.87;8.60;;;;;;;0.22;99.96;99258.69;10454209;28;20347;-54
2021/01/26 03:22:27;;;;;;;22.93;10.23;;;;;;;0.23;99.35;99274.34;10454664;28;20176;-53
2021/01/26 03:27:31;;;;;;;15.03;6.73;;;;;;;0.22;99.97;99267.41;10452856;28;20241;-54
2021/01/26 03:32:36;;;;;;;10.03;5.90;;;;;;;0.22;99.53;99272.66;10435924;28;20564;-54
2021/01/26 03:37:37;;;;;;;18.53;10.43;;;;;;;0.19;99.98;99278.00;10436353;28;20215;-52
2021/01/26 03:42:37;;;;;;;17.43;8.87;;;;;;;0.18;100.00;99273.66;10453497;28;20229;-52
2021/01/26 03:48:21;;;;;;;15.97;9.63;;;;;;;0.19;99.87;99275.38;10452916;28;20184;-52
2021/01/26 03:53:36;;;;;;;15.17;9.17;;;;;;;0.20;100.00;99281.47;10424461;28;20184;-52
2021/01/26 03:58:43;;;;;;;14.43;8.63;;;;;;;0.19;100.00;99275.38;10453296;28;20208;-52
2021/01/26 04:04:03;;;;;;;15.67;8.33;;;;;;;0.18;100.00;99273.66;10453116;28;20183;-53
2021/01/26 04:09:08;;;;;;;10.33;7.10;;;;;;;0.20;99.67;99256.09;10452415;28;20183;-52
2021/01/26 04:14:31;;;;;;;15.13;8.90;;;;;;;0.21;99.82;99288.44;10452047;28;20706;-52
2021/01/26 04:19:36;;;;;;;10.17;5.90;;;;;;;0.19;99.05;99296.38;10433712;28;20239;-53
2021/01/26 04:24:36;;;;;;;17.90;9.13;;;;;;;0.20;100.00;99298.06;10452309;28;20199;-52
2021/01/26 04:29:37;;;;;;;12.67;7.47;;;;;;;0.20;99.23;99305.94;10451615;28;20186;-52
2021/01/26 04:34:37;;;;;;;6.90;4.97;;;;;;;0.21;98.62;99314.66;10451225;28;20251;-53
2021/01/26 04:39:38;;;;;;;9.53;6.63;;;;;;;0.17;98.75;99297.34;10451470;28;20210;-52
2021/01/26 04:44:53;;;;;;;12.20;7.17;;;;;;;0.18;98.97;99299.91;10451509;28;20183;-52
2021/01/26 04:49:56;;;;;;;9.33;6.33;;;;;;;0.18;98.48;99294.66;10450741;28;20203;-53
2021/01/26 04:55:32;;;;;;;12.83;6.93;;;;;;;0.16;98.80;99306.97;10449827;28;20810;-52
2021/01/26 05:01:26;;;;;;;10.30;7.03;;;;;;;0.16;98.68;99298.25;10450891;28;20222;-52
2021/01/26 05:06:37;;;;;;;9.40;6.23;;;;;;;0.17;98.98;99303.44;10432928;28;20211;-52
2021/01/26 05:11:40;;;;;;;8.50;5.47;;;;;;;0.16;98.54;99299.09;10432726;28;20186;-53
2021/01/26 05:17:06;;;;;;;9.37;6.23;;;;;;;0.14;98.78;99298.28;10449584;28;20235;-52
2021/01/26 05:22:25;;;;;;;11.07;6.40;;;;;;;0.14;98.49;99314.03;10450093;28;20730;-52
2021/01/26 05:27:25;;;;;;;12.70;7.13;;;;;;;0.15;98.68;99307.88;10450116;28;20175;-52
2021/01/26 05:32:26;;;;;;;12.00;8.07;;;;;;;0.14;97.90;99308.78;10449232;28;20522;-54
2021/01/26 05:37:27;;;;;;;8.30;5.37;;;;;;;0.13;97.98;99322.81;10431397;28;20676;-52
2021/01/26 05:42:28;;;;;;;12.17;7.37;;;;;;;0.11;97.70;99318.56;10431331;28;20180;-53
2021/01/26 05:47:32;;;;;;;8.27;5.87;;;;;;;0.07;97.18;99336.19;10448709;28;20274;-53
2021/01/26 05:52:37;;;;;;;10.90;5.73;;;;;;;0.09;96.84;99326.50;10448512;28;20188;-53
2021/01/26 05:57:38;;;;;;;9.77;5.53;;;;;;;0.08;96.17;99324.78;10430454;28;20668;-53
2021/01/26 06:02:38;;;;;;;7.63;4.70;;;;;;;0.08;97.37;99340.50;10448709;28;20179;-53
2021/01/26 06:07:39;;;;;;;15.47;8.13;;;;;;;0.08;96.80;99337.88;10454138;28;20302;-52
2021/01/26 06:12:50;;;;;;;14.30;8.10;;;;;;;0.08;97.10;99345.75;10455636;28;20187;-53
2021/01/26 06:18:08;;;;;;;9.23;5.50;;;;;;;0.08;96.82;99350.16;10454507;28;20310;-53
2021/01/26 06:23:28;;;;;;;7.80;4.70;;;;;;;0.07;96.43;99349.28;10415128;28;20191;-52
2021/01/26 06:28:59;;;;;;;10.23;5.63;;;;;;;0.07;96.33;99365.03;10422682;28;20172;-52
2021/01/26 06:34:18;;;;;;;8.90;4.83;;;;;;;0.04;95.75;99365.13;10454469;28;20300;-53
2021/01/26 06:39:54;;;;;;;14.17;8.00;;;;;;;0.03;96.02;99373.91;10456382;28;20227;-53
2021/01/26 06:45:42;;;;;;;7.90;5.57;;;;;;;0.01;95.75;99386.22;10455045;28;20279;-53
2021/01/26 06:51:13;;;;;;;11.17;5.50;;;;;;;-0.02;94.84;99396.84;10286675;28;20445;-53
2021/01/26 06:56:40;;;;;;;5.37;3.20;;;;;;;-0.04;93.76;99396.03;10286758;28;20209;-53
2021/01/26 07:02:00;;;;;;;7.37;4.77;;;;;;;-0.06;93.37;99387.34;10283174;28;20931;-53
2021/01/26 07:07:19;;;;;;;7.93;5.10;;;;;;;-0.06;92.50;99403.09;10283035;28;20346;-53
2021/01/26 07:12:32;;;;;;;9.63;6.10;;;;;;;-0.08;93.10;99386.56;10283412;28;20194;-53
2021/01/26 07:17:45;;;;;;;8.53;6.17;;;;;;;-0.06;93.68;99401.31;10284876;28;20285;-53
2021/01/26 07:23:24;;;;;;;13.77;7.87;;;;;;;-0.05;94.81;99400.41;10291256;28;20649;-53
2021/01/26 07:28:43;;;;;;;9.83;4.97;;;;;;;-0.04;94.13;99393.41;10412277;28;20281;-54
2021/01/26 07:34:25;;;;;;;12.97;8.00;;;;;;;0.00;95.29;99401.09;10412602;28;20801;-53
2021/01/26 07:39:36;;;;;;;10.30;5.53;;;;;;;0.02;95.34;99393.16;10411951;28;20227;-53
2021/01/26 07:44:36;;;;;;;9.30;4.73;;;;;;;0.04;93.97;99414.09;10394640;28;20249;-54
2021/01/26 07:49:58;;;;;;;7.40;4.50;;;;;;;0.02;93.43;99415.91;10412570;28;20271;-54
2021/01/26 07:55:09;;;;;;;11.53;6.20;;;;;;;0.01;94.77;99430.78;10408782;28;20548;-53
2021/01/26 08:00:11;;;;;;;14.67;6.43;;;;;;;0.02;93.50;99419.41;10394768;28;20201;-53
2021/01/26 08:05:17;;;;;;;12.00;5.93;;;;;;;0.07;93.23;99417.47;10377984;28;20191;-53
2021/01/26 08:10:24;;;;;;;11.77;6.50;;;;;;;0.07;94.15;99401.75;10411485;28;20180;-53
2021/01/26 08:15:30;;;;;;;7.37;4.43;;;;;;;0.15;94.95;99398.81;10410758;28;20633;-53
2021/01/26 08:20:32;;;;;;;12.73;6.20;;;;;;;0.23;95.35;99402.91;10411334;28;20204;-54
2021/01/26 08:25:41;;;;;;;14.80;7.43;;;;;;;0.29;94.36;99426.28;10410656;28;20370;-53
2021/01/26 08:30:46;;;;;;;15.87;8.50;;;;;;;0.35;95.29;99428.69;10410926;28;20188;-53
2021/01/26 08:36:25;;;;;;;14.67;6.33;;;;;;;0.40;94.70;99419.75;10410709;28;20177;-54
2021/01/26 08:42:05;;;;;;;8.83;5.97;;;;;;;0.48;92.77;99412.47;10410042;28;20601;-55
2021/01/26 08:47:40;;;;;;;11.60;5.97;;;;;;;0.50;93.18;99416.72;10211110;29;20179;-55
2021/01/26 08:52:40;;;;;;;8.20;4.67;;;;;;;0.60;92.63;99417.25;10226989;29;20223;-55
2021/01/26 08:57:42;;;;;;;11.43;6.43;;;;;;;0.63;91.05;99419.75;10242477;29;20325;-55
2021/01/26 09:02:45;;;;;;;16.20;7.33;;;;;;;0.68;91.97;99437.03;10242378;29;20195;-54
2021/01/26 09:07:56;;;;;;;12.37;5.43;;;;;;;0.68;91.53;99425.69;10226298;29;20223;-54
2021/01/26 09:13:25;;;;;;;11.10;5.30;;;;;;;0.79;90.26;99427.91;10242233;29;20641;-55
2021/01/26 09:18:27;;;;;;;7.90;4.53;;;;;;;0.83;89.41;99432.97;10387034;28;20236;-55
2021/01/26 09:23:28;;;;;;;14.13;6.00;;;;;;;0.86;89.28;99445.97;10391862;28;20172;-55
2021/01/26 09:28:39;;;;;;;14.87;5.50;;;;;;;0.94;89.73;99433.41;10408592;28;20267;-55
2021/01/26 09:33:39;;;;;;;13.37;6.10;;;;;;;0.97;88.48;99438.53;10408472;28;20169;-56
2021/01/26 09:38:49;;;;;;;12.17;6.33;;;;;;;1.05;89.15;99436.47;10408158;28;20266;-54
2021/01/26 09:44:09;;;;;;;19.30;8.77;;;;;;;1.13;89.58;99448.44;10408461;28;20168;-54
2021/01/26 09:49:30;;;;;;;13.30;7.03;;;;;;;1.17;89.77;99452.66;10408249;28;20176;-55
2021/01/26 09:54:33;;;;;;;15.20;6.43;;;;;;;1.27;89.72;99446.13;10407982;28;20176;-55
2021/01/26 09:59:36;;;;;;;16.23;8.87;;;;;;;1.34;89.16;99458.94;10407906;28;20212;-55
2021/01/26 10:04:38;;;;;;;12.10;7.17;;;;;;;1.42;88.27;99456.00;10390346;28;20243;-54
2021/01/26 10:09:42;;;;;;;15.57;8.60;;;;;;;1.48;87.85;99445.22;10390278;28;20264;-56
2021/01/26 10:15:06;;;;;;;14.37;6.87;;;;;;;1.50;86.32;99451.28;10391194;28;20169;-55
2021/01/26 10:20:07;;;;;;;7.83;4.90;;;;;;;1.58;86.11;99461.47;10407468;28;20576;-55
2021/01/26 10:25:10;;;;;;;13.97;7.93;;;;;;;1.55;86.38;99459.84;10407410;28;20188;-55
2021/01/26 10:30:16;;;;;;;11.27;6.00;;;;;;;1.36;86.30;99458.88;10407997;28;20207;-54
2021/01/26 10:35:23;;;;;;;12.07;7.67;;;;;;;1.34;87.23;99450.19;10389613;28;20200;-55
2021/01/26 10:40:26;;;;;;;11.57;6.73;;;;;;;1.26;86.85;99470.69;10407138;28;20211;-54
2021/01/26 10:45:46;;;;;;;12.47;7.43;;;;;;;1.18;87.58;99481.50;10406960;28;20177;-54
2021/01/26 10:50:47;;;;;;;15.03;8.57;;;;;;;1.10;88.41;99486.19;10379958;28;20303;-54
2021/01/26 10:55:47;;;;;;;10.67;6.80;;;;;;;1.07;88.64;99484.56;10423044;28;20192;-54
2021/01/26 11:00:48;;;;;;;9.07;5.13;;;;;;;1.11;89.56;99492.28;10424708;28;20204;-54
2021/01/26 11:05:48;;;;;;;15.90;9.23;;;;;;;1.18;89.30;99483.28;10425052;28;20245;-54
2021/01/26 11:10:49;;;;;;;12.20;6.30;;;;;;;1.27;89.89;99478.50;10428812;28;21068;-54
2021/01/26 11:15:50;;;;;;;17.63;9.33;;;;;;;1.22;88.81;99483.06;10426467;28;20235;-54
2021/01/26 11:20:51;;;;;;;17.63;9.33;;;;;;;1.21;89.24;99472.66;10427310;28;20318;-55
2021/01/26 11:25:52;;;;;;;18.83;10.10;;;;;;;1.19;89.63;99470.09;10424578;28;20629;-54
2021/01/26 11:30:52;;;;;;;12.37;6.50;;;;;;;1.17;89.59;99481.56;10429467;28;20198;-54
2021/01/26 11:35:54;;;;;;;21.23;10.30;;;;;;;1.21;89.48;99467.41;10423894;28;20724;-54
2021/01/26 11:40:56;;;;;;;12.47;6.70;;;;;;;1.33;88.93;99472.13;10427705;28;20857;-54
2021/01/26 11:45:56;;;;;;;11.90;4.90;;;;;;;1.45;87.84;99451.47;10423292;28;20206;-54
2021/01/26 11:50:57;;;;;;;16.43;9.67;;;;;;;1.62;89.16;99458.66;10428784;28;20191;-53
2021/01/26 11:55:59;;;;;;;19.43;9.77;;;;;;;1.69;87.84;99459.28;10424210;28;20171;-55
2021/01/26 12:00:59;;;;;;;13.97;7.87;;;;;;;1.62;85.72;99447.28;10427491;28;20202;-54
2021/01/26 12:06:01;;;;;;;14.60;7.47;;;;;;;1.54;87.01;99444.13;10424211;28;20172;-55
2021/01/26 12:11:02;;;;;;;15.53;8.67;;;;;;;1.48;88.28;99471.50;10427516;28;20188;-55
2021/01/26 12:16:02;;;;;;;18.23;9.63;;;;;;;1.45;87.37;99461.13;10421811;28;20313;-54
2021/01/26 12:21:04;;;;;;;11.63;6.40;;;;;;;1.42;87.92;99471.78;10425439;28;20191;-53
2021/01/26 12:26:07;;;;;;;16.20;7.17;;;;;;;1.36;88.17;99466.75;10421430;28;20594;-54
2021/01/26 12:31:08;;;;;;;25.33;9.47;;;;;;;1.34;89.32;99465.97;10425299;28;20600;-54
2021/01/26 12:36:09;;;;;;;17.30;8.83;;;;;;;1.30;88.54;99467.03;10421269;28;20951;-54
2021/01/26 12:41:10;;;;;;;22.27;9.07;;;;;;;1.29;88.73;99470.56;10425164;28;20176;-54
2021/01/26 12:46:11;;;;;;;20.50;11.48;;;;;;;1.31;88.69;99481.88;10420559;28;20428;-54
2021/01/26 12:51:11;;;;;;;12.87;8.23;;;;;;;1.34;88.61;99482.59;10406364;28;20202;-53
2021/01/26 12:56:12;;;;;;;14.57;7.03;;;;;;;1.35;87.31;99486.06;10422362;28;20227;-54
2021/01/26 13:01:12;;;;;;;15.47;8.63;;;;;;;1.36;86.87;99490.41;10423887;28;20438;-54
2021/01/26 13:06:13;;;;;;;10.83;5.60;;;;;;;1.38;85.82;99497.31;10420508;28;20226;-53
2021/01/26 13:11:14;;;;;;;6.77;4.87;;;;;;;1.12;85.92;99460.72;10425642;28;20602;-53
2021/01/26 13:16:15;;;;;;;11.93;6.30;;;;;;;1.37;86.09;99494.75;10398949;28;20243;-53
2021/01/26 13:21:16;;;;;;;12.50;7.73;;;;;;;1.39;86.14;99491.16;10418530;28;20195;-52
2021/01/26 13:26:16;;;;;;;15.37;7.30;;;;;;;1.40;87.73;99492.00;10377211;28;20188;-52
2021/01/26 13:31:17;;;;;;;14.33;7.93;;;;;;;1.36;88.60;99496.53;10381882;28;20192;-52
2021/01/26 13:36:18;;;;;;;18.77;9.33;;;;;;;1.32;88.81;99488.84;10376938;28;20181;-52
2021/01/26 13:41:18;;;;;;;13.70;8.03;;;;;;;1.32;88.96;99496.72;10380566;28;20219;-54
2021/01/26 13:46:19;;;;;;;17.40;9.30;;;;;;;1.36;90.22;99498.28;10378261;28;20181;-54
2021/01/26 13:55:53;;;;;;;18.27;9.63;;;;;;;1.43;89.35;99499.78;10554855;27;20620;-53
2021/01/26 14:00:53;;;;;;;14.13;6.70;;;;;;;1.36;89.43;99493.03;10566463;28;20853;-53
2021/01/26 14:05:54;;;;;;;24.33;11.30;;;;;;;1.32;88.58;99507.25;10571111;28;20193;-53
2021/01/26 14:10:54;;;;;;;20.17;9.40;;;;;;;1.28;89.17;99500.38;10572590;28;20181;-53
2021/01/26 14:15:55;;;;;;;15.23;7.90;;;;;;;1.25;89.02;99517.13;10547071;28;20178;-54
2021/01/26 14:20:55;;;;;;;14.07;7.57;;;;;;;1.22;89.29;99522.50;10568501;28;20193;-54
2021/01/26 14:25:56;;;;;;;24.47;14.00;;;;;;;1.28;89.26;99524.03;10554446;28;20429;-53
2021/01/26 14:31:00;;;;;;;20.47;10.27;;;;;;;1.23;90.63;99536.47;10573260;28;20213;-54
2021/01/26 14:36:03;;;;;;;23.43;10.67;;;;;;;1.21;90.52;99540.97;10554309;28;20765;-54
2021/01/26 14:41:04;;;;;;;18.37;10.60;;;;;;;1.17;90.84;99540.22;10568667;27;20290;-53
2021/01/26 14:46:05;;;;;;;15.60;8.70;;;;;;;1.16;90.89;99548.16;10546396;28;20227;-53
2021/01/26 14:51:05;;;;;;;20.80;9.93;;;;;;;1.14;91.90;99545.59;10570249;28;20634;-54
2021/01/26 14:56:05;;;;;;;23.97;12.33;;;;;;;1.14;92.64;99555.25;10560146;27;20615;-53
2021/01/26 15:01:07;;;;;;;16.77;8.00;;;;;;;1.12;91.87;99551.81;10559335;28;20244;-54
2021/01/26 15:06:08;;;;;;;20.37;9.60;;;;;;;1.10;93.19;99549.22;10528689;28;20756;-53
2021/01/26 15:11:10;;;;;;;31.80;13.30;;;;;;;1.06;93.71;99566.91;10520917;28;20975;-54
2021/01/26 15:16:10;;;;;;;18.83;9.90;;;;;;;1.06;93.60;99573.94;10517395;28;20228;-54
2021/01/26 15:21:11;;;;;;;23.33;11.47;;;;;;;1.03;94.67;99574.91;10532148;28;20197;-54
2021/01/26 15:26:11;;;;;;;22.93;12.30;;;;;;;1.01;94.55;99575.84;9959073;28;21058;-54
2021/01/26 15:31:13;;;;;;;21.90;11.73;;;;;;;1.02;94.46;99565.31;10427343;28;20278;-54
2021/01/26 15:36:36;;;;;;;12.30;7.80;;;;;;;1.02;93.81;99580.19;10421092;28;20218;-53
2021/01/26 15:41:38;;;;;;;21.13;9.67;;;;;;;1.01;94.61;99597.72;10427181;28;20227;-54
2021/01/26 15:46:39;;;;;;;22.20;11.10;;;;;;;1.02;93.88;99599.44;10424825;28;20871;-53
2021/01/26 15:51:39;;;;;;;34.80;21.37;;;;;;;1.15;93.65;99593.75;10424818;28;20454;-54
2021/01/26 15:56:40;;;;;;;25.80;15.53;;;;;;;1.05;94.65;99583.59;10406194;28;20957;-54
2021/01/26 16:01:41;;;;;;;22.73;10.93;;;;;;;1.07;94.33;99591.41;10427263;28;20869;-54
2021/01/26 16:06:41;;;;;;;21.33;9.93;;;;;;;1.02;94.39;99599.44;10423248;28;20179;-54
2021/01/26 16:11:43;;;;;;;25.73;12.23;;;;;;;1.02;93.54;99591.56;10414161;28;20228;-53
2021/01/26 16:16:44;;;;;;;34.17;18.30;;;;;;;1.03;93.93;99603.78;10420052;28;20534;-53
2021/01/26 16:21:45;;;;;;;31.73;14.47;;;;;;;1.02;95.17;99609.97;10426013;28;20192;-55
2021/01/26 16:26:46;;;;;;;15.33;9.17;;;;;;;1.00;95.01;99605.66;10409743;28;20227;-56
2021/01/26 16:31:46;;;;;;;25.43;12.43;;;;;;;0.97;95.99;99595.25;10422665;28;20219;-56
2021/01/26 16:36:47;;;;;;;19.53;10.80;;;;;;;0.95;95.69;99597.97;10420414;28;20180;-55
2021/01/26 16:41:48;;;;;;;21.30;11.23;;;;;;;0.92;96.36;99615.59;10421960;28;20176;-56
2021/01/26 16:46:53;;;;;;;49.73;24.57;;;;;;;1.00;96.17;99600.41;10404016;28;20530;-58
2021/01/26 16:51:53;;;;;;;28.03;13.27;;;;;;;0.93;95.63;99605.03;10422280;28;20239;-57
2021/01/26 16:56:55;;;;;;;21.37;12.40;;;;;;;0.86;95.41;99616.66;10421289;28;20860;-57
2021/01/26 17:01:55;;;;;;;28.83;13.07;;;;;;;0.86;96.46;99618.44;10425314;28;20168;-56
2021/01/26 17:06:56;;;;;;;28.13;12.53;;;;;;;0.86;95.95;99621.91;10421120;28;20180;-57
2021/01/26 17:11:57;;;;;;;24.07;9.83;;;;;;;0.89;95.15;99644.59;10425966;28;20351;-56
2021/01/26 17:16:58;;;;;;;24.50;12.37;;;;;;;0.84;95.75;99636.91;10421441;28;20210;-56
2021/01/26 17:21:58;;;;;;;20.83;10.53;;;;;;;0.82;95.66;99636.09;10424850;28;20563;-56
2021/01/26 17:26:59;;;;;;;24.17;9.30;;;;;;;0.82;95.28;99643.97;10420585;28;20179;-57
2021/01/26 17:31:59;;;;;;;24.50;11.47;;;;;;;0.78;95.87;99646.75;10423350;28;20313;-56
2021/01/26 17:37:02;;;;;;;29.77;13.03;;;;;;;0.76;96.26;99653.81;10420115;28;20184;-55
2021/01/26 17:42:04;;;;;;;21.80;9.53;;;;;;;0.75;96.12;99645.09;10418457;28;20565;-56
2021/01/26 17:47:05;;;;;;;21.43;9.77;;;;;;;0.73;95.17;99655.63;10415516;28;20302;-55
2021/01/26 17:52:07;;;;;;;20.07;10.53;;;;;;;0.74;95.43;99651.25;10405269;28;20242;-56
2021/01/26 17:57:08;;;;;;;25.97;11.03;;;;;;;0.72;95.04;99656.53;10420322;28;20219;-54
2021/01/26 18:02:09;;;;;;;22.70;10.17;;;;;;;0.71;94.51;99667.13;10405750;28;20234;-55
2021/01/26 18:07:09;;;;;;;29.90;11.70;;;;;;;0.71;94.14;99672.38;10402055;28;20241;-55
2021/01/26 18:12:10;;;;;;;20.33;10.07;;;;;;;0.71;94.53;99677.63;10422981;28;20215;-55
2021/01/26 18:17:10;;;;;;;17.30;8.10;;;;;;;0.65;94.49;99681.31;10401667;28;20635;-56
2021/01/26 18:22:11;;;;;;;15.67;9.27;;;;;;;0.67;93.67;99676.00;10422997;28;20709;-54
2021/01/26 18:27:11;;;;;;;14.07;7.70;;;;;;;0.64;93.49;99676.09;10401830;28;20195;-56
2021/01/26 18:32:12;;;;;;;23.33;9.00;;;;;;;0.64;93.83;99668.22;10422985;28;20636;-56
2021/01/26 18:37:13;;;;;;;23.83;9.60;;;;;;;0.63;93.71;99684.88;10418252;28;20188;-54
2021/01/26 18:42:13;;;;;;;20.70;8.30;;;;;;;0.61;93.35;99677.06;10428640;28;20985;-55
2021/01/26 18:47:14;;;;;;;23.03;11.53;;;;;;;0.66;93.78;99679.53;10427193;28;20198;-55
2021/01/26 18:52:14;;;;;;;15.47;8.20;;;;;;;0.65;93.47;99672.56;10429757;28;20274;-57
2021/01/26 18:57:15;;;;;;;21.33;8.63;;;;;;;0.55;94.07;99652.81;10426378;28;20193;-57
2021/01/26 19:02:16;;;;;;;18.17;8.27;;;;;;;0.62;93.37;99670.03;10430725;28;20732;-56
2021/01/26 19:07:16;;;;;;;17.33;8.77;;;;;;;0.59;93.69;99680.69;10423271;28;20195;-56
2021/01/26 19:12:17;;;;;;;15.70;7.17;;;;;;;0.60;94.04;99674.53;10423355;28;21273;-57
2021/01/26 19:17:19;;;;;;;11.60;5.67;;;;;;;0.60;93.18;99674.53;10423681;28;20231;-55
2021/01/26 19:22:19;;;;;;;10.37;4.70;;;;;;;0.58;93.13;99697.34;10419480;28;21683;-57
2021/01/26 19:27:21;;;;;;;17.03;9.03;;;;;;;0.59;93.76;99688.56;10425209;28;20188;-57
2021/01/26 19:32:22;;;;;;;17.83;8.30;;;;;;;0.59;93.03;99693.81;10443399;28;20246;-56
2021/01/26 19:37:23;;;;;;;25.03;10.03;;;;;;;0.59;93.19;99704.31;10419895;28;20187;-56
2021/01/26 19:42:24;;;;;;;14.17;6.27;;;;;;;0.59;93.17;99683.31;10415879;28;20642;-56
2021/01/26 19:47:24;;;;;;;8.80;3.60;;;;;;;0.56;92.86;99704.41;10416248;28;20177;-56
2021/01/26 19:52:25;;;;;;;18.80;9.13;;;;;;;0.53;93.20;99701.88;10415505;28;20791;-56
2021/01/26 19:57:26;;;;;;;14.73;7.33;;;;;;;0.52;92.60;99714.13;10415547;28;20188;-56
2021/01/26 20:02:27;;;;;;;22.53;9.03;;;;;;;0.47;92.45;99707.34;10414983;28;20169;-59
2021/01/26 20:07:27;;;;;;;11.60;5.00;;;;;;;0.42;92.36;99720.59;10412125;28;20180;-58
2021/01/26 20:12:28;;;;;;;14.70;5.60;;;;;;;0.36;92.67;99720.81;10413612;28;20212;-56
2021/01/26 20:17:28;;;;;;;17.47;7.93;;;;;;;0.35;92.27;99725.19;10413327;28;20176;-62
2021/01/26 20:22:29;;;;;;;20.33;8.93;;;;;;;0.35;92.30;99719.94;10411781;28;20230;-58
2021/01/26 20:27:30;;;;;;;22.90;8.43;;;;;;;0.36;93.91;99729.50;10412528;28;20176;-58
2021/01/26 20:32:31;;;;;;;13.47;6.80;;;;;;;0.34;92.63;99741.84;10412745;28;20196;-58
2021/01/26 20:37:32;;;;;;;12.40;7.07;;;;;;;0.31;92.62;99726.19;10425739;28;20202;-59
2021/01/26 20:42:33;;;;;;;13.13;6.63;;;;;;;0.23;92.38;99727.34;10452360;28;20191;-58
2021/01/26 20:47:34;;;;;;;15.20;6.23;;;;;;;0.18;93.18;99719.63;10435403;28;20225;-58
2021/01/26 20:52:34;;;;;;;21.30;10.70;;;;;;;0.20;95.45;99736.19;10452618;28;20324;-58
2021/01/26 20:57:37;;;;;;;17.93;10.50;;;;;;;0.16;94.52;99721.44;10452886;28;20479;-58
2021/01/26 21:02:44;;;;;;;15.40;7.93;;;;;;;0.14;94.54;99728.47;10452592;28;20528;-59
2021/01/26 21:07:46;;;;;;;19.83;9.47;;;;;;;0.15;95.64;99719.72;10453461;28;20180;-57
2021/01/26 21:12:47;;;;;;;15.03;7.37;;;;;;;0.12;94.60;99739.97;10452133;28;20671;-58
2021/01/26 21:17:48;;;;;;;23.90;11.23;;;;;;;0.08;94.91;99731.31;10453603;28;20180;-57
2021/01/26 21:22:50;;;;;;;20.03;10.13;;;;;;;0.08;94.33;99751.44;10453254;28;20543;-57
2021/01/26 21:27:52;;;;;;;19.10;11.00;;;;;;;0.06;95.12;99727.00;10453238;28;20194;-56
2021/01/26 21:32:52;;;;;;;19.67;10.20;;;;;;;0.12;95.80;99729.47;10453007;28;20290;-58
2021/01/26 21:37:53;;;;;;;8.73;5.70;;;;;;;0.13;94.90;99726.75;10453030;28;20274;-60
2021/01/26 21:42:53;;;;;;;16.73;8.73;;;;;;;0.04;97.99;99734.06;10453907;28;20183;-57
2021/01/26 21:47:56;;;;;;;11.87;6.57;;;;;;;-0.06;98.13;99730.88;10453769;28;20171;-59
2021/01/26 21:52:58;;;;;;;15.83;8.07;;;;;;;-0.11;99.39;99720.50;10449903;28;20235;-58
2021/01/26 21:57:59;;;;;;;19.27;10.07;;;;;;;-0.04;99.02;99742.19;10451859;28;20196;-58
2021/01/26 22:03:00;;;;;;;22.63;12.57;;;;;;;-0.03;98.42;99738.66;10451984;28;20176;-56
2021/01/26 22:08:01;;;;;;;14.47;8.17;;;;;;;-0.03;97.39;99726.41;10452049;28;20171;-56
2021/01/26 22:13:03;;;;;;;18.27;7.83;;;;;;;0.07;97.34;99737.47;10452633;28;20214;-58
2021/01/26 22:18:06;;;;;;;24.40;11.07;;;;;;;0.10;96.49;99734.75;10459832;28;20180;-57
2021/01/26 22:23:10;;;;;;;18.37;8.60;;;;;;;0.15;96.30;99743.31;10461632;28;20180;-59
2021/01/26 22:28:18;;;;;;;23.70;10.63;;;;;;;0.17;96.84;99740.66;10460769;28;20549;-58
2021/01/26 22:33:19;;;;;;;17.73;8.70;;;;;;;0.15;95.78;99735.44;10460278;28;20643;-58
2021/01/26 22:38:22;;;;;;;23.70;10.93;;;;;;;0.14;96.76;99736.34;10460487;28;20180;-58
2021/01/26 22:43:22;;;;;;;17.07;9.03;;;;;;;0.20;96.38;99738.81;10443211;28;20180;-58
2021/01/26 22:48:23;;;;;;;18.60;8.07;;;;;;;0.22;96.30;99742.25;10460131;28;20172;-58
2021/01/26 22:53:24;;;;;;;17.37;9.77;;;;;;;0.22;95.97;99726.50;10459908;28;20237;-58
2021/01/26 22:58:24;;;;;;;20.93;10.20;;;;;;;0.23;96.62;99717.72;10459550;28;20178;-59
2021/01/26 23:03:25;;;;;;;21.43;10.80;;;;;;;0.31;97.61;99735.84;10460222;28;20778;-57
2021/01/26 23:08:26;;;;;;;19.47;9.50;;;;;;;0.30;97.54;99711.34;10441314;28;20700;-56
2021/01/26 23:13:27;;;;;;;15.57;8.60;;;;;;;0.29;96.34;99725.38;10459698;28;20568;-56
2021/01/26 23:18:29;;;;;;;17.93;9.60;;;;;;;0.32;97.67;99717.41;10459420;28;20412;-56
2021/01/26 23:23:30;;;;;;;20.50;10.63;;;;;;;0.33;96.87;99726.16;10459178;28;20172;-55
2021/01/26 23:28:31;;;;;;;23.00;10.20;;;;;;;0.32;96.93;99722.66;10458617;28;20226;-56
2021/01/26 23:33:32;;;;;;;18.83;10.07;;;;;;;0.29;96.63;99714.88;10458906;28;20216;-56
2021/01/26 23:38:32;;;;;;;25.97;11.70;;;;;;;0.27;96.66;99721.94;10440744;28;20539;-56
2021/01/26 23:43:32;;;;;;;24.13;11.53;;;;;;;0.28;97.26;99705.28;10457816;28;20263;-57